Latest Weather Observations for Little Bay

IDN60801

Issued at 2:35 pm EST Wednesday 20 August 2014 (issued every 30 minutes, with the page automatically refreshed every 10 minutes)

About weather observations | Map of weather stations | Latest weather observations for NSW | Other Formats
Station Details ID: 066051 Name: LITTLE BAY (THE COAST GOLF CLUB) Lat: -33.98 Lon: 151.25 Height: 22.0 m
Data from the previous 72 hours. | See also: Recent months for locations in New South Wales
Date/Time
EST
Temp
°C
App
Temp
°C
Dew
Point
Rel
Hum
%
Delta-T
°C
Wind Press
QNH
hPa
Press
MSL
hPa
Rain
since 9 am
mm
Dir
 
Spd
km/h
Gust
km/h
Spd
kts
Gust
kts
20/02:30pm - - - - - S 30 39 16 21 - - -
20/02:00pm - - - - - SSW 26 35 14 19 - - -
20/01:30pm - - - - - S 28 39 15 21 - - -
20/01:00pm - - - - - S 28 37 15 20 - - -
20/12:30pm - - - - - S 28 41 15 22 - - -
20/12:00pm - - - - - SSW 26 35 14 19 - - -
20/11:30am - - - - - SSW 30 41 16 22 - - -
20/11:00am - - - - - SSW 24 35 13 19 - - -
20/10:56am - - - - - SSW 28 46 15 25 - - -
20/10:30am - - - - - S 28 43 15 23 - - -
20/10:00am - - - - - SSW 28 41 15 22 - - -
20/09:30am - - - - - SSW 24 39 13 21 - - -
20/09:00am - - - - - SW 24 37 13 20 - - -
20/08:30am - - - - - SW 26 39 14 21 - - -
20/08:00am - - - - - WSW 13 17 7 9 - - -
20/07:30am - - - - - WSW 15 26 8 14 - - -
20/07:00am - - - - - SW 17 26 9 14 - - -
20/06:30am - - - - - SW 17 28 9 15 - - -
20/06:00am - - - - - WSW 15 22 8 12 - - -
20/05:30am - - - - - WSW 15 22 8 12 - - -
20/05:00am - - - - - SW 20 39 11 21 - - -
20/04:30am - - - - - SSW 26 39 14 21 - - -
20/04:00am - - - - - SSW 28 39 15 21 - - -
20/03:30am - - - - - SSW 28 39 15 21 - - -
20/03:00am - - - - - SSW 32 44 17 24 - - -
20/02:30am - - - - - SSW 24 35 13 19 - - -
20/02:00am - - - - - SSW 28 39 15 21 - - -
20/01:30am - - - - - SSW 32 50 17 27 - - -
20/01:00am - - - - - SSW 28 41 15 22 - - -
20/12:30am - - - - - SSW 35 52 19 28 - - -
20/12:00am - - - - - SSW 33 50 18 27 - - -
 
Date/Time
EST
Temp
°C
App
Temp
°C
Dew
Point
Rel
Hum
%
Delta-T
°C
Wind Press
QNH
hPa
Press
MSL
hPa
Rain
since 9 am
mm
Dir
 
Spd
km/h
Gust
km/h
Spd
kts
Gust
kts
19/11:30pm - - - - - SSW 30 43 16 23 - - -
19/11:00pm - - - - - SSW 32 50 17 27 - - -
19/10:51pm - - - - - SSW 33 52 18 28 - - -
19/10:30pm - - - - - SSW 33 52 18 28 - - -
19/10:00pm - - - - - SSW 28 39 15 21 - - -
19/09:42pm - - - - - SSW 30 48 16 26 - - -
19/09:30pm - - - - - S 37 52 20 28 - - -
19/09:18pm - - - - - S 37 57 20 31 - - -
19/09:00pm - - - - - S 41 59 22 32 - - -
19/08:30pm - - - - - S 43 56 23 30 - - -
19/08:19pm - - - - - S 41 63 22 34 - - -
19/08:00pm - - - - - S 43 54 23 29 - - -
19/07:31pm - - - - - S 37 56 20 30 - - -
19/07:30pm - - - - - S 39 56 21 30 - - -
19/07:11pm - - - - - S 37 56 20 30 - - -
19/07:00pm - - - - - S 43 57 23 31 - - -
19/06:32pm - - - - - S 39 63 21 34 - - -
19/06:30pm - - - - - S 39 56 21 30 - - -
19/06:12pm - - - - - SSW 33 52 18 28 - - -
19/06:00pm - - - - - SSW 35 54 19 29 - - -
19/05:30pm - - - - - SSW 39 57 21 31 - - -
19/05:05pm - - - - - SSW 33 59 18 32 - - -
19/05:00pm - - - - - SW 35 48 19 26 - - -
19/04:45pm - - - - - SSW 33 52 18 28 - - -
19/04:30pm - - - - - SSW 37 52 20 28 - - -
19/04:17pm - - - - - SSW 37 57 20 31 - - -
19/04:00pm - - - - - S 37 54 20 29 - - -
19/03:56pm - - - - - S 37 56 20 30 - - -
19/03:30pm - - - - - S 39 56 21 30 - - -
19/03:00pm - - - - - S 35 50 19 27 - - -
19/02:32pm - - - - - S 41 59 22 32 - - -
19/02:30pm - - - - - S 43 59 23 32 - - -
19/02:00pm - - - - - S 35 52 19 28 - - -
19/01:45pm - - - - - SSW 33 54 18 29 - - -
19/01:30pm - - - - - SSW 37 54 20 29 - - -
19/01:00pm - - - - - S 46 65 25 35 - - -
19/12:34pm - - - - - S 37 57 20 31 - - -
19/12:30pm - - - - - S 37 50 20 27 - - -
19/12:07pm - - - - - S 39 57 21 31 - - -
19/12:00pm - - - - - S 39 52 21 28 - - -
19/11:42am - - - - - SSW 32 57 17 31 - - -
19/11:30am - - - - - SSW 33 50 18 27 - - -
19/11:28am - - - - - SSW 32 50 17 27 - - -
19/11:00am - - - - - SSW 35 48 19 26 - - -
19/10:37am - - - - - S 30 48 16 26 - - -
19/10:30am - - - - - SSW 32 46 17 25 - - -
19/10:00am - - - - - SSW 30 43 16 23 - - -
19/09:46am - - - - - SW 32 43 17 23 - - -
19/09:35am - - - - - S 37 57 20 31 - - -
19/09:30am - - - - - S 41 57 22 31 - - -
19/09:18am - - - - - SSW 32 50 17 27 - - -
19/09:12am - - - - - SSW 32 39 17 21 - - -
19/09:03am - - - - - S 41 59 22 32 - - -
19/09:00am - - - - - S 43 59 23 32 - - -
19/08:30am - - - - - S 39 56 21 30 - - -
19/08:06am - - - - - S 37 57 20 31 - - -
19/08:00am - - - - - S 44 57 24 31 - - -
19/07:57am - - - - - S 46 57 25 31 - - -
19/07:32am - - - - - SSE 41 61 22 33 - - -
19/07:30am - - - - - SSE 43 61 23 33 - - -
19/07:00am - - - - - S 43 61 23 33 - - -
19/06:30am - - - - - S 46 67 25 36 - - -
19/06:16am - - - - - S 43 65 23 35 - - -
19/06:00am - - - - - S 41 57 22 31 - - -
19/05:30am - - - - - S 44 69 24 37 - - -
19/05:05am - - - - - S 39 59 21 32 - - -
19/05:00am - - - - - S 39 54 21 29 - - -
19/04:30am - - - - - S 35 57 19 31 - - -
19/04:25am - - - - - S 39 57 21 31 - - -
19/04:00am - - - - - S 37 54 20 29 - - -
19/03:48am - - - - - S 37 57 20 31 - - -
19/03:30am - - - - - S 37 54 20 29 - - -
19/03:12am - - - - - S 37 61 20 33 - - -
19/03:00am - - - - - S 39 54 21 29 - - -
19/02:44am - - - - - S 37 63 20 34 - - -
19/02:30am - - - - - S 44 59 24 32 - - -
19/02:25am - - - - - S 41 59 22 32 - - -
19/02:00am - - - - - S 33 46 18 25 - - -
19/01:58am - - - - - S 35 54 19 29 - - -
19/01:30am - - - - - S 35 48 19 26 - - -
19/01:00am - - - - - S 35 46 19 25 - - -
19/12:30am - - - - - SSE 37 48 20 26 - - -
19/12:00am - - - - - SSE 35 54 19 29 - - -
 
Date/Time
EST
Temp
°C
App
Temp
°C
Dew
Point
Rel
Hum
%
Delta-T
°C
Wind Press
QNH
hPa
Press
MSL
hPa
Rain
since 9 am
mm
Dir
 
Spd
km/h
Gust
km/h
Spd
kts
Gust
kts
18/11:32pm - - - - - S 33 52 18 28 - - -
18/11:30pm - - - - - S 33 44 18 24 - - -
18/11:00pm - - - - - S 30 41 16 22 - - -
18/10:30pm - - - - - S 35 50 19 27 - - -
18/10:00pm - - - - - S 33 48 18 26 - - -
18/09:30pm - - - - - S 33 46 18 25 - - -
18/09:00pm - - - - - S 35 50 19 27 - - -
18/08:49pm - - - - - S 37 56 20 30 - - -
18/08:30pm - - - - - S 37 52 20 28 - - -
18/08:00pm - - - - - S 37 54 20 29 - - -
18/07:30pm - - - - - S 41 56 22 30 - - -
18/07:00pm - - - - - S 41 61 22 33 - - -
18/06:30pm - - - - - SSW 37 56 20 30 - - -
18/06:00pm - - - - - SW 35 54 19 29 - - -
18/05:32pm - - - - - SW 37 57 20 31 - - -
18/05:30pm - - - - - SW 39 57 21 31 - - -
18/05:00pm - - - - - SW 41 59 22 32 - - -
18/04:47pm - - - - - SW 37 69 20 37 - - -
18/04:30pm - - - - - SW 30 48 16 26 - - -
18/04:00pm - - - - - SW 39 59 21 32 - - -
18/03:30pm - - - - - SSW 41 70 22 38 - - -
18/03:00pm - - - - - SSW 44 65 24 35 - - -
18/02:31pm - - - - - S 46 67 25 36 - - -
18/02:30pm - - - - - S 44 61 24 33 - - -
18/02:05pm - - - - - S 48 76 26 41 - - -
18/02:00pm - - - - - S 48 63 26 34 - - -
18/01:38pm - - - - - S 46 67 25 36 - - -
18/01:30pm - - - - - S 48 67 26 36 - - -
18/01:00pm - - - - - S 48 69 26 37 - - -
18/12:53pm - - - - - S 43 65 23 35 - - -
18/12:30pm - - - - - S 48 67 26 36 - - -
18/12:09pm - - - - - S 50 70 27 38 - - -
18/12:00pm - - - - - S 48 67 26 36 - - -
18/11:36am - - - - - S 46 65 25 35 - - -
18/11:30am - - - - - S 48 65 26 35 - - -
18/11:00am - - - - - S 50 70 27 38 - - -
18/10:30am - - - - - SSE 46 65 25 35 - - -
18/10:13am - - - - - SSE 41 61 22 33 - - -
18/10:00am - - - - - SSE 41 48 22 26 - - -
18/09:30am - - - - - SSE 39 48 21 26 - - -
18/09:21am - - - - - SE 37 46 20 25 - - -
18/09:00am - - - - - SSE 61 82 33 44 - - -
18/08:30am - - - - - S 52 72 28 39 - - -
18/08:25am - - - - - S 56 76 30 41 - - -
18/08:18am - - - - - S 61 76 33 41 - - -
18/08:02am - - - - - S 37 59 20 32 - - -
18/08:00am - - - - - S 33 43 18 23 - - -
18/07:57am - - - - - SW 28 48 15 26 - - -
18/07:30am - - - - - WNW 13 19 7 10 - - -
18/07:00am - - - - - W 7 9 4 5 - - -
18/06:30am - - - - - W 9 15 5 8 - - -
18/06:00am - - - - - W 13 15 7 8 - - -
18/05:30am - - - - - WNW 11 17 6 9 - - -
18/05:00am - - - - - WNW 11 17 6 9 - - -
18/04:30am - - - - - WNW 11 19 6 10 - - -
18/04:00am - - - - - NW 9 15 5 8 - - -
18/03:30am - - - - - NW 13 19 7 10 - - -
18/03:00am - - - - - WNW 17 30 9 16 - - -
18/02:30am - - - - - WNW 15 22 8 12 - - -
18/02:00am - - - - - WNW 15 24 8 13 - - -
18/01:30am - - - - - WNW 13 22 7 12 - - -
18/01:00am - - - - - WNW 13 20 7 11 - - -
18/12:30am - - - - - WNW 11 19 6 10 - - -
18/12:00am - - - - - WNW 11 19 6 10 - - -
 
Date/Time
EST
Temp
°C
App
Temp
°C
Dew
Point
Rel
Hum
%
Delta-T
°C
Wind Press
QNH
hPa
Press
MSL
hPa
Rain
since 9 am
mm
Dir
 
Spd
km/h
Gust
km/h
Spd
kts
Gust
kts
17/11:30pm - - - - - WNW 13 22 7 12 - - -
17/11:00pm - - - - - WNW 11 19 6 10 - - -
17/10:30pm - - - - - W 13 20 7 11 - - -
17/10:00pm - - - - - W 15 26 8 14 - - -
17/09:30pm - - - - - WNW 13 20 7 11 - - -
17/09:00pm - - - - - W 15 22 8 12 - - -
17/08:30pm - - - - - WNW 15 24 8 13 - - -
17/08:00pm - - - - - WNW 15 22 8 12 - - -
17/07:30pm - - - - - NW 9 20 5 11 - - -
17/07:00pm - - - - - WNW 4 6 2 3 - - -
17/06:30pm - - - - - W 9 15 5 8 - - -
17/06:00pm - - - - - W 13 19 7 10 - - -
17/05:30pm - - - - - W 11 19 6 10 - - -
17/05:00pm - - - - - WNW 9 19 5 10 - - -
17/04:30pm - - - - - WNW 15 24 8 13 - - -
17/04:00pm - - - - - WNW 15 28 8 15 - - -
17/03:30pm - - - - - WNW 13 24 7 13 - - -
17/03:00pm - - - - - WNW 15 22 8 12 - - -

Other Formats:

Comma delimited format used in spreadsheet applications
http://www.bom.gov.au/fwo/IDN60801/IDN60801.94780.axf

JavaScript Object Notation format (JSON) in row-major order
http://www.bom.gov.au/fwo/IDN60801/IDN60801.94780.json